Fountain Green, Illinois
Current Conditions -  °F | °C
As of 1:15 AM on Saturday 25 Oct 2014 (Local Time) from KMQB Reporting Station
Clear Clear  
Wind Chill: 51°   Ceiling: Unl
Heat Index: 51°   Visibility: 7mi
Dew Point: 51°   Wind: 5mph
Humidity: 97%   Direction: 300°WNW
Pressure: 29.98"   Gusts: NA
Location:  40.4155°N, 91.0269°W
Report Text: KMQB 250615Z AUTO 30004KT 7SM CLR 11/10 A2998 RMK AO2 T01070103
Loading
Personal Weather Stations






























Interactive Weather Map
Tropical Storm Tracking
New forecast layout! Learn more

10-Day Weather Forecast

Advertisements
Track Severe Weather on mobile